sensor_id;sensor_type;location;lat;lon;timestamp;P1;durP1;ratioP1;P2;durP2;ratioP2
19623;SDS011;9959;49.798;9.928;2023-06-22T00:01:20;21.00;;;15.13;;
19623;SDS011;9959;49.798;9.928;2023-06-22T00:03:49;22.38;;;15.00;;
19623;SDS011;9959;49.798;9.928;2023-06-22T00:06:16;21.17;;;15.48;;
19623;SDS011;9959;49.798;9.928;2023-06-22T00:08:43;20.35;;;15.50;;
19623;SDS011;9959;49.798;9.928;2023-06-22T00:11:10;19.33;;;15.77;;
19623;SDS011;9959;49.798;9.928;2023-06-22T00:13:37;19.17;;;15.63;;
19623;SDS011;9959;49.798;9.928;2023-06-22T00:16:04;23.45;;;15.30;;
19623;SDS011;9959;49.798;9.928;2023-06-22T00:18:31;18.55;;;14.65;;
19623;SDS011;9959;49.798;9.928;2023-06-22T00:20:59;18.60;;;15.02;;
19623;SDS011;9959;49.798;9.928;2023-06-22T00:23:26;20.50;;;15.05;;
19623;SDS011;9959;49.798;9.928;2023-06-22T00:25:53;21.35;;;16.33;;
19623;SDS011;9959;49.798;9.928;2023-06-22T00:28:20;24.08;;;15.93;;
19623;SDS011;9959;49.798;9.928;2023-06-22T00:30:48;23.95;;;15.35;;
19623;SDS011;9959;49.798;9.928;2023-06-22T00:33:16;19.52;;;14.88;;
19623;SDS011;9959;49.798;9.928;2023-06-22T00:35:43;22.92;;;15.55;;
19623;SDS011;9959;49.798;9.928;2023-06-22T00:38:11;25.58;;;17.00;;
19623;SDS011;9959;49.798;9.928;2023-06-22T00:40:38;21.27;;;16.45;;
19623;SDS011;9959;49.798;9.928;2023-06-22T00:43:05;24.55;;;16.52;;
19623;SDS011;9959;49.798;9.928;2023-06-22T00:45:32;22.30;;;17.10;;
19623;SDS011;9959;49.798;9.928;2023-06-22T00:47:59;22.88;;;17.13;;
19623;SDS011;9959;49.798;9.928;2023-06-22T00:50:28;20.38;;;16.25;;
19623;SDS011;9959;49.798;9.928;2023-06-22T00:53:01;20.38;;;16.00;;
19623;SDS011;9959;49.798;9.928;2023-06-22T00:55:37;23.25;;;16.70;;
19623;SDS011;9959;49.798;9.928;2023-06-22T00:58:09;20.70;;;16.33;;
19623;SDS011;9959;49.798;9.928;2023-06-22T01:00:37;22.25;;;16.45;;
19623;SDS011;9959;49.798;9.928;2023-06-22T01:03:05;22.58;;;16.80;;
19623;SDS011;9959;49.798;9.928;2023-06-22T01:05:37;26.50;;;17.40;;
19623;SDS011;9959;49.798;9.928;2023-06-22T01:08:26;22.70;;;17.80;;
19623;SDS011;9959;49.798;9.928;2023-06-22T01:11:07;24.80;;;18.15;;
19623;SDS011;9959;49.798;9.928;2023-06-22T01:13:39;22.30;;;17.40;;
19623;SDS011;9959;49.798;9.928;2023-06-22T01:16:20;23.70;;;18.15;;
19623;SDS011;9959;49.798;9.928;2023-06-22T01:18:52;24.60;;;18.10;;
19623;SDS011;9959;49.798;9.928;2023-06-22T01:21:22;25.33;;;18.35;;
19623;SDS011;9959;49.798;9.928;2023-06-22T01:23:54;27.83;;;19.17;;
19623;SDS011;9959;49.798;9.928;2023-06-22T01:27:18;28.38;;;20.42;;
19623;SDS011;9959;49.798;9.928;2023-06-22T01:29:40;25.75;;;17.88;;
19623;SDS011;9959;49.798;9.928;2023-06-22T01:32:09;25.35;;;19.15;;
19623;SDS011;9959;49.798;9.928;2023-06-22T01:34:38;25.20;;;17.73;;
19623;SDS011;9959;49.798;9.928;2023-06-22T01:37:06;22.85;;;17.77;;
19623;SDS011;9959;49.798;9.928;2023-06-22T01:39:34;26.40;;;18.13;;
19623;SDS011;9959;49.798;9.928;2023-06-22T01:42:02;23.48;;;18.15;;
19623;SDS011;9959;49.798;9.928;2023-06-22T01:44:31;25.98;;;18.05;;
19623;SDS011;9959;49.798;9.928;2023-06-22T01:46:59;26.35;;;17.40;;
19623;SDS011;9959;49.798;9.928;2023-06-22T01:49:26;24.55;;;16.27;;
19623;SDS011;9959;49.798;9.928;2023-06-22T01:51:54;24.42;;;16.45;;
19623;SDS011;9959;49.798;9.928;2023-06-22T01:54:22;23.40;;;17.17;;
19623;SDS011;9959;49.798;9.928;2023-06-22T01:56:49;23.63;;;16.02;;
19623;SDS011;9959;49.798;9.928;2023-06-22T01:59:26;23.05;;;16.30;;
19623;SDS011;9959;49.798;9.928;2023-06-22T02:02:01;20.48;;;16.52;;
19623;SDS011;9959;49.798;9.928;2023-06-22T02:07:17;23.42;;;17.38;;
19623;SDS011;9959;49.798;9.928;2023-06-22T02:09:47;26.02;;;17.42;;
19623;SDS011;9959;49.798;9.928;2023-06-22T02:12:18;36.00;;;18.80;;
19623;SDS011;9959;49.798;9.928;2023-06-22T02:14:50;28.10;;;17.67;;
19623;SDS011;9959;49.798;9.928;2023-06-22T02:17:18;30.38;;;18.90;;
19623;SDS011;9959;49.798;9.928;2023-06-22T02:19:45;32.28;;;19.20;;
19623;SDS011;9959;49.798;9.928;2023-06-22T02:22:12;31.70;;;20.15;;
19623;SDS011;9959;49.798;9.928;2023-06-22T02:24:40;36.50;;;21.77;;
19623;SDS011;9959;49.798;9.928;2023-06-22T02:27:07;30.92;;;21.08;;
19623;SDS011;9959;49.798;9.928;2023-06-22T02:29:34;31.83;;;20.92;;
19623;SDS011;9959;49.798;9.928;2023-06-22T02:32:00;35.00;;;22.10;;
19623;SDS011;9959;49.798;9.928;2023-06-22T02:34:27;31.60;;;22.30;;
19623;SDS011;9959;49.798;9.928;2023-06-22T02:36:54;29.75;;;21.80;;
19623;SDS011;9959;49.798;9.928;2023-06-22T02:39:22;32.28;;;22.52;;
19623;SDS011;9959;49.798;9.928;2023-06-22T02:41:50;30.73;;;22.98;;
19623;SDS011;9959;49.798;9.928;2023-06-22T02:44:19;33.03;;;23.50;;
19623;SDS011;9959;49.798;9.928;2023-06-22T02:46:47;34.13;;;23.63;;
19623;SDS011;9959;49.798;9.928;2023-06-22T02:49:14;32.25;;;23.77;;
19623;SDS011;9959;49.798;9.928;2023-06-22T02:51:50;34.38;;;25.10;;
19623;SDS011;9959;49.798;9.928;2023-06-22T02:54:17;35.60;;;24.50;;
19623;SDS011;9959;49.798;9.928;2023-06-22T02:56:44;35.15;;;24.88;;
19623;SDS011;9959;49.798;9.928;2023-06-22T02:59:11;38.38;;;26.83;;
19623;SDS011;9959;49.798;9.928;2023-06-22T03:01:38;34.33;;;25.02;;
19623;SDS011;9959;49.798;9.928;2023-06-22T03:04:07;34.60;;;26.35;;
19623;SDS011;9959;49.798;9.928;2023-06-22T03:06:34;38.13;;;26.88;;
19623;SDS011;9959;49.798;9.928;2023-06-22T03:09:03;40.33;;;26.83;;
19623;SDS011;9959;49.798;9.928;2023-06-22T03:11:32;37.65;;;27.05;;
19623;SDS011;9959;49.798;9.928;2023-06-22T03:14:02;37.83;;;27.67;;
19623;SDS011;9959;49.798;9.928;2023-06-22T03:16:28;35.33;;;25.95;;
19623;SDS011;9959;49.798;9.928;2023-06-22T03:18:55;33.72;;;25.55;;
19623;SDS011;9959;49.798;9.928;2023-06-22T03:21:23;32.53;;;24.85;;
19623;SDS011;9959;49.798;9.928;2023-06-22T03:23:50;34.10;;;26.98;;
19623;SDS011;9959;49.798;9.928;2023-06-22T03:26:17;35.78;;;26.10;;
19623;SDS011;9959;49.798;9.928;2023-06-22T03:28:45;37.70;;;26.42;;
19623;SDS011;9959;49.798;9.928;2023-06-22T03:31:12;37.05;;;26.40;;
19623;SDS011;9959;49.798;9.928;2023-06-22T03:33:39;34.65;;;26.45;;
19623;SDS011;9959;49.798;9.928;2023-06-22T03:36:05;33.95;;;26.85;;
19623;SDS011;9959;49.798;9.928;2023-06-22T03:38:32;39.20;;;27.48;;
19623;SDS011;9959;49.798;9.928;2023-06-22T03:40:59;35.92;;;25.65;;
19623;SDS011;9959;49.798;9.928;2023-06-22T03:43:26;36.53;;;26.08;;
19623;SDS011;9959;49.798;9.928;2023-06-22T03:45:53;33.97;;;25.77;;
19623;SDS011;9959;49.798;9.928;2023-06-22T03:48:20;35.28;;;25.98;;
19623;SDS011;9959;49.798;9.928;2023-06-22T03:50:47;35.85;;;25.65;;
19623;SDS011;9959;49.798;9.928;2023-06-22T03:53:13;38.17;;;26.77;;
19623;SDS011;9959;49.798;9.928;2023-06-22T03:55:47;30.83;;;25.02;;
19623;SDS011;9959;49.798;9.928;2023-06-22T03:58:17;37.90;;;25.92;;
19623;SDS011;9959;49.798;9.928;2023-06-22T04:00:46;29.90;;;23.92;;
19623;SDS011;9959;49.798;9.928;2023-06-22T04:03:16;31.65;;;24.05;;
19623;SDS011;9959;49.798;9.928;2023-06-22T04:05:47;32.15;;;24.58;;
19623;SDS011;9959;49.798;9.928;2023-06-22T04:08:15;36.63;;;23.92;;
19623;SDS011;9959;49.798;9.928;2023-06-22T04:10:42;32.30;;;23.90;;
19623;SDS011;9959;49.798;9.928;2023-06-22T04:13:09;30.73;;;22.00;;
19623;SDS011;9959;49.798;9.928;2023-06-22T04:15:36;35.40;;;23.98;;
19623;SDS011;9959;49.798;9.928;2023-06-22T04:18:03;37.03;;;24.40;;
19623;SDS011;9959;49.798;9.928;2023-06-22T04:20:31;31.52;;;24.33;;
19623;SDS011;9959;49.798;9.928;2023-06-22T04:22:59;33.60;;;24.42;;
19623;SDS011;9959;49.798;9.928;2023-06-22T04:25:26;31.85;;;22.77;;
19623;SDS011;9959;49.798;9.928;2023-06-22T04:27:52;35.83;;;24.02;;
19623;SDS011;9959;49.798;9.928;2023-06-22T04:30:19;33.17;;;24.02;;
19623;SDS011;9959;49.798;9.928;2023-06-22T04:32:46;31.63;;;23.98;;
19623;SDS011;9959;49.798;9.928;2023-06-22T04:35:25;30.23;;;23.13;;
19623;SDS011;9959;49.798;9.928;2023-06-22T04:37:52;27.45;;;21.85;;
19623;SDS011;9959;49.798;9.928;2023-06-22T04:40:22;31.40;;;21.95;;
19623;SDS011;9959;49.798;9.928;2023-06-22T04:42:49;29.08;;;22.25;;
19623;SDS011;9959;49.798;9.928;2023-06-22T04:45:20;32.55;;;22.67;;
19623;SDS011;9959;49.798;9.928;2023-06-22T04:47:47;34.35;;;23.45;;
19623;SDS011;9959;49.798;9.928;2023-06-22T04:50:15;31.15;;;22.15;;
19623;SDS011;9959;49.798;9.928;2023-06-22T04:52:41;29.77;;;22.77;;
19623;SDS011;9959;49.798;9.928;2023-06-22T04:55:08;29.85;;;21.83;;
19623;SDS011;9959;49.798;9.928;2023-06-22T04:57:35;31.75;;;22.92;;
19623;SDS011;9959;49.798;9.928;2023-06-22T05:00:05;31.10;;;21.65;;
19623;SDS011;9959;49.798;9.928;2023-06-22T05:02:39;30.10;;;22.58;;
19623;SDS011;9959;49.798;9.928;2023-06-22T05:05:07;29.08;;;22.60;;
19623;SDS011;9959;49.798;9.928;2023-06-22T05:07:35;30.92;;;22.83;;
19623;SDS011;9959;49.798;9.928;2023-06-22T05:10:03;28.70;;;21.63;;
19623;SDS011;9959;49.798;9.928;2023-06-22T05:12:30;29.00;;;22.63;;
19623;SDS011;9959;49.798;9.928;2023-06-22T05:14:57;29.20;;;22.17;;
19623;SDS011;9959;49.798;9.928;2023-06-22T05:17:24;27.40;;;22.25;;
19623;SDS011;9959;49.798;9.928;2023-06-22T05:19:51;32.00;;;20.60;;
19623;SDS011;9959;49.798;9.928;2023-06-22T05:22:19;29.52;;;23.17;;
19623;SDS011;9959;49.798;9.928;2023-06-22T05:24:46;29.00;;;22.02;;
19623;SDS011;9959;49.798;9.928;2023-06-22T05:27:13;29.58;;;22.52;;
19623;SDS011;9959;49.798;9.928;2023-06-22T05:29:41;29.52;;;22.70;;
19623;SDS011;9959;49.798;9.928;2023-06-22T05:32:09;34.35;;;22.88;;
19623;SDS011;9959;49.798;9.928;2023-06-22T05:34:36;30.25;;;22.60;;
19623;SDS011;9959;49.798;9.928;2023-06-22T05:37:03;30.48;;;21.75;;
19623;SDS011;9959;49.798;9.928;2023-06-22T05:39:30;29.42;;;22.35;;
19623;SDS011;9959;49.798;9.928;2023-06-22T05:41:57;24.70;;;19.50;;
19623;SDS011;9959;49.798;9.928;2023-06-22T05:44:24;29.05;;;21.48;;
19623;SDS011;9959;49.798;9.928;2023-06-22T05:46:50;31.05;;;21.05;;
19623;SDS011;9959;49.798;9.928;2023-06-22T05:49:17;27.27;;;19.33;;
19623;SDS011;9959;49.798;9.928;2023-06-22T05:51:44;24.00;;;19.30;;
19623;SDS011;9959;49.798;9.928;2023-06-22T05:54:11;28.17;;;20.33;;
19623;SDS011;9959;49.798;9.928;2023-06-22T05:56:40;22.90;;;17.98;;
19623;SDS011;9959;49.798;9.928;2023-06-22T05:59:07;29.40;;;20.33;;
19623;SDS011;9959;49.798;9.928;2023-06-22T06:01:34;26.27;;;20.55;;
19623;SDS011;9959;49.798;9.928;2023-06-22T06:04:02;23.48;;;19.00;;
19623;SDS011;9959;49.798;9.928;2023-06-22T06:06:30;22.58;;;18.60;;
19623;SDS011;9959;49.798;9.928;2023-06-22T06:08:57;25.30;;;19.33;;
19623;SDS011;9959;49.798;9.928;2023-06-22T06:11:26;23.67;;;19.77;;
19623;SDS011;9959;49.798;9.928;2023-06-22T06:13:53;28.83;;;19.42;;
19623;SDS011;9959;49.798;9.928;2023-06-22T06:16:20;25.40;;;19.58;;
19623;SDS011;9959;49.798;9.928;2023-06-22T06:18:47;22.95;;;19.08;;
19623;SDS011;9959;49.798;9.928;2023-06-22T06:21:16;24.45;;;19.00;;
19623;SDS011;9959;49.798;9.928;2023-06-22T06:23:43;26.40;;;18.67;;
19623;SDS011;9959;49.798;9.928;2023-06-22T06:26:10;24.20;;;19.23;;
19623;SDS011;9959;49.798;9.928;2023-06-22T06:28:37;26.55;;;18.25;;
19623;SDS011;9959;49.798;9.928;2023-06-22T06:31:04;22.58;;;18.15;;
19623;SDS011;9959;49.798;9.928;2023-06-22T06:33:34;24.92;;;19.85;;
19623;SDS011;9959;49.798;9.928;2023-06-22T06:36:01;26.63;;;18.90;;
19623;SDS011;9959;49.798;9.928;2023-06-22T06:38:30;24.33;;;17.95;;
19623;SDS011;9959;49.798;9.928;2023-06-22T06:40:57;25.67;;;18.42;;
19623;SDS011;9959;49.798;9.928;2023-06-22T06:43:25;24.33;;;18.88;;
19623;SDS011;9959;49.798;9.928;2023-06-22T06:45:52;22.20;;;17.35;;
19623;SDS011;9959;49.798;9.928;2023-06-22T06:48:19;21.85;;;17.58;;
19623;SDS011;9959;49.798;9.928;2023-06-22T06:50:46;19.30;;;16.58;;
19623;SDS011;9959;49.798;9.928;2023-06-22T06:53:13;21.00;;;17.80;;
19623;SDS011;9959;49.798;9.928;2023-06-22T06:55:40;23.80;;;18.05;;
19623;SDS011;9959;49.798;9.928;2023-06-22T06:58:07;23.73;;;16.73;;
19623;SDS011;9959;49.798;9.928;2023-06-22T07:00:36;19.25;;;15.63;;
19623;SDS011;9959;49.798;9.928;2023-06-22T07:03:04;18.13;;;15.18;;
19623;SDS011;9959;49.798;9.928;2023-06-22T07:05:31;19.25;;;15.80;;
19623;SDS011;9959;49.798;9.928;2023-06-22T07:07:59;19.35;;;15.93;;
19623;SDS011;9959;49.798;9.928;2023-06-22T07:10:26;21.08;;;15.93;;
19623;SDS011;9959;49.798;9.928;2023-06-22T07:12:53;17.77;;;15.45;;
19623;SDS011;9959;49.798;9.928;2023-06-22T07:15:20;23.70;;;16.50;;
19623;SDS011;9959;49.798;9.928;2023-06-22T07:17:47;19.45;;;15.45;;
19623;SDS011;9959;49.798;9.928;2023-06-22T07:20:14;17.65;;;15.35;;
19623;SDS011;9959;49.798;9.928;2023-06-22T07:22:42;20.55;;;15.90;;
19623;SDS011;9959;49.798;9.928;2023-06-22T07:25:11;17.00;;;14.98;;
19623;SDS011;9959;49.798;9.928;2023-06-22T07:27:45;18.83;;;16.05;;
19623;SDS011;9959;49.798;9.928;2023-06-22T07:30:14;19.40;;;15.82;;
19623;SDS011;9959;49.798;9.928;2023-06-22T07:32:41;18.83;;;14.98;;
19623;SDS011;9959;49.798;9.928;2023-06-22T07:35:08;17.58;;;14.23;;
19623;SDS011;9959;49.798;9.928;2023-06-22T07:37:35;16.40;;;14.05;;
19623;SDS011;9959;49.798;9.928;2023-06-22T07:40:02;19.08;;;14.45;;
19623;SDS011;9959;49.798;9.928;2023-06-22T07:42:33;20.55;;;13.90;;
19623;SDS011;9959;49.798;9.928;2023-06-22T07:45:00;21.15;;;13.45;;
19623;SDS011;9959;49.798;9.928;2023-06-22T07:47:28;16.98;;;13.50;;
19623;SDS011;9959;49.798;9.928;2023-06-22T07:49:55;17.52;;;13.95;;
19623;SDS011;9959;49.798;9.928;2023-06-22T07:52:24;18.75;;;12.88;;
19623;SDS011;9959;49.798;9.928;2023-06-22T07:54:54;16.15;;;13.27;;
19623;SDS011;9959;49.798;9.928;2023-06-22T07:57:21;16.45;;;13.43;;
19623;SDS011;9959;49.798;9.928;2023-06-22T07:59:48;14.63;;;13.10;;
19623;SDS011;9959;49.798;9.928;2023-06-22T08:02:15;15.07;;;13.07;;
19623;SDS011;9959;49.798;9.928;2023-06-22T08:04:42;19.25;;;14.43;;
19623;SDS011;9959;49.798;9.928;2023-06-22T08:07:09;17.42;;;14.18;;
19623;SDS011;9959;49.798;9.928;2023-06-22T08:09:36;19.30;;;13.18;;
19623;SDS011;9959;49.798;9.928;2023-06-22T08:12:03;17.75;;;13.20;;
19623;SDS011;9959;49.798;9.928;2023-06-22T08:14:31;15.82;;;13.27;;
19623;SDS011;9959;49.798;9.928;2023-06-22T08:16:57;19.25;;;13.52;;
19623;SDS011;9959;49.798;9.928;2023-06-22T08:19:24;17.58;;;14.13;;
19623;SDS011;9959;49.798;9.928;2023-06-22T08:21:51;15.00;;;13.30;;
19623;SDS011;9959;49.798;9.928;2023-06-22T08:24:18;17.77;;;13.32;;
19623;SDS011;9959;49.798;9.928;2023-06-22T08:26:45;18.70;;;12.65;;
19623;SDS011;9959;49.798;9.928;2023-06-22T08:29:12;14.73;;;12.75;;
19623;SDS011;9959;49.798;9.928;2023-06-22T08:31:39;16.88;;;12.82;;
19623;SDS011;9959;49.798;9.928;2023-06-22T08:34:06;17.05;;;13.98;;
19623;SDS011;9959;49.798;9.928;2023-06-22T08:36:33;15.65;;;13.30;;
19623;SDS011;9959;49.798;9.928;2023-06-22T08:39:03;13.85;;;12.40;;
19623;SDS011;9959;49.798;9.928;2023-06-22T08:41:30;19.00;;;13.20;;
19623;SDS011;9959;49.798;9.928;2023-06-22T08:43:57;15.48;;;12.82;;
19623;SDS011;9959;49.798;9.928;2023-06-22T08:46:24;15.73;;;12.60;;
19623;SDS011;9959;49.798;9.928;2023-06-22T08:48:57;15.07;;;12.10;;
19623;SDS011;9959;49.798;9.928;2023-06-22T08:51:24;16.02;;;9.98;;
19623;SDS011;9959;49.798;9.928;2023-06-22T08:53:51;10.77;;;9.50;;
19623;SDS011;9959;49.798;9.928;2023-06-22T08:56:18;12.88;;;10.07;;
19623;SDS011;9959;49.798;9.928;2023-06-22T08:58:45;12.38;;;9.95;;
19623;SDS011;9959;49.798;9.928;2023-06-22T09:01:12;12.27;;;9.77;;
19623;SDS011;9959;49.798;9.928;2023-06-22T09:03:39;14.93;;;10.00;;
19623;SDS011;9959;49.798;9.928;2023-06-22T09:06:06;10.93;;;9.20;;
19623;SDS011;9959;49.798;9.928;2023-06-22T09:08:36;18.08;;;10.25;;
19623;SDS011;9959;49.798;9.928;2023-06-22T09:11:03;10.68;;;9.40;;
19623;SDS011;9959;49.798;9.928;2023-06-22T09:13:30;12.95;;;10.27;;
19623;SDS011;9959;49.798;9.928;2023-06-22T09:15:58;12.25;;;10.73;;
19623;SDS011;9959;49.798;9.928;2023-06-22T09:18:25;12.60;;;9.57;;
19623;SDS011;9959;49.798;9.928;2023-06-22T09:20:52;12.32;;;9.25;;
19623;SDS011;9959;49.798;9.928;2023-06-22T09:23:18;9.77;;;8.73;;
19623;SDS011;9959;49.798;9.928;2023-06-22T09:25:45;10.80;;;8.75;;
19623;SDS011;9959;49.798;9.928;2023-06-22T09:28:14;10.60;;;9.18;;
19623;SDS011;9959;49.798;9.928;2023-06-22T09:30:42;15.75;;;9.60;;
19623;SDS011;9959;49.798;9.928;2023-06-22T09:33:11;11.65;;;9.73;;
19623;SDS011;9959;49.798;9.928;2023-06-22T09:35:38;12.98;;;10.13;;
19623;SDS011;9959;49.798;9.928;2023-06-22T09:38:05;13.90;;;9.65;;
19623;SDS011;9959;49.798;9.928;2023-06-22T09:40:32;9.95;;;8.57;;
19623;SDS011;9959;49.798;9.928;2023-06-22T09:43:01;11.60;;;9.60;;
19623;SDS011;9959;49.798;9.928;2023-06-22T09:45:28;9.60;;;8.70;;
19623;SDS011;9959;49.798;9.928;2023-06-22T09:47:55;9.70;;;8.65;;
19623;SDS011;9959;49.798;9.928;2023-06-22T09:50:22;9.15;;;8.27;;
19623;SDS011;9959;49.798;9.928;2023-06-22T09:52:49;10.70;;;7.82;;
19623;SDS011;9959;49.798;9.928;2023-06-22T09:55:21;12.15;;;9.25;;
19623;SDS011;9959;49.798;9.928;2023-06-22T09:57:48;17.23;;;9.88;;
19623;SDS011;9959;49.798;9.928;2023-06-22T10:00:16;13.57;;;9.65;;
19623;SDS011;9959;49.798;9.928;2023-06-22T10:02:44;12.10;;;9.07;;
19623;SDS011;9959;49.798;9.928;2023-06-22T10:05:11;10.80;;;9.38;;
19623;SDS011;9959;49.798;9.928;2023-06-22T10:07:39;11.57;;;8.70;;
19623;SDS011;9959;49.798;9.928;2023-06-22T10:10:12;10.90;;;8.30;;
19623;SDS011;9959;49.798;9.928;2023-06-22T10:12:41;10.88;;;7.90;;
19623;SDS011;9959;49.798;9.928;2023-06-22T10:15:10;11.00;;;8.07;;
19623;SDS011;9959;49.798;9.928;2023-06-22T10:17:38;8.93;;;7.45;;
19623;SDS011;9959;49.798;9.928;2023-06-22T10:20:06;17.17;;;7.60;;
19623;SDS011;9959;49.798;9.928;2023-06-22T10:22:38;9.63;;;8.50;;
19623;SDS011;9959;49.798;9.928;2023-06-22T10:25:06;13.55;;;8.30;;
19623;SDS011;9959;49.798;9.928;2023-06-22T10:27:34;13.40;;;8.13;;
19623;SDS011;9959;49.798;9.928;2023-06-22T10:30:01;11.32;;;8.32;;
19623;SDS011;9959;49.798;9.928;2023-06-22T10:32:28;9.00;;;8.07;;
19623;SDS011;9959;49.798;9.928;2023-06-22T10:34:55;10.02;;;8.10;;
19623;SDS011;9959;49.798;9.928;2023-06-22T10:37:24;10.13;;;7.35;;
19623;SDS011;9959;49.798;9.928;2023-06-22T10:39:51;11.30;;;7.93;;
19623;SDS011;9959;49.798;9.928;2023-06-22T10:42:18;15.77;;;11.82;;
19623;SDS011;9959;49.798;9.928;2023-06-22T10:44:45;13.15;;;7.88;;
19623;SDS011;9959;49.798;9.928;2023-06-22T10:47:12;10.98;;;7.63;;
19623;SDS011;9959;49.798;9.928;2023-06-22T10:49:39;11.20;;;7.80;;
19623;SDS011;9959;49.798;9.928;2023-06-22T10:52:07;11.32;;;7.75;;
19623;SDS011;9959;49.798;9.928;2023-06-22T10:54:35;14.10;;;8.13;;
19623;SDS011;9959;49.798;9.928;2023-06-22T10:57:03;9.70;;;7.70;;
19623;SDS011;9959;49.798;9.928;2023-06-22T10:59:30;9.75;;;7.35;;
19623;SDS011;9959;49.798;9.928;2023-06-22T11:01:57;10.50;;;7.50;;
19623;SDS011;9959;49.798;9.928;2023-06-22T11:04:24;10.60;;;8.10;;
19623;SDS011;9959;49.798;9.928;2023-06-22T11:06:51;14.45;;;8.07;;
19623;SDS011;9959;49.798;9.928;2023-06-22T11:09:18;12.90;;;7.43;;
19623;SDS011;9959;49.798;9.928;2023-06-22T11:11:52;11.48;;;7.70;;
19623;SDS011;9959;49.798;9.928;2023-06-22T11:14:20;13.05;;;7.07;;
19623;SDS011;9959;49.798;9.928;2023-06-22T11:16:48;12.70;;;6.80;;
19623;SDS011;9959;49.798;9.928;2023-06-22T11:19:15;11.82;;;6.93;;
19623;SDS011;9959;49.798;9.928;2023-06-22T11:21:42;26.58;;;8.82;;
19623;SDS011;9959;49.798;9.928;2023-06-22T11:24:09;12.50;;;7.13;;
19623;SDS011;9959;49.798;9.928;2023-06-22T11:26:37;11.95;;;6.80;;
19623;SDS011;9959;49.798;9.928;2023-06-22T11:29:04;12.85;;;7.13;;
19623;SDS011;9959;49.798;9.928;2023-06-22T11:31:32;8.45;;;7.57;;
19623;SDS011;9959;49.798;9.928;2023-06-22T11:33:59;8.90;;;6.63;;
19623;SDS011;9959;49.798;9.928;2023-06-22T11:36:26;11.50;;;6.75;;
19623;SDS011;9959;49.798;9.928;2023-06-22T11:38:53;11.05;;;7.75;;
19623;SDS011;9959;49.798;9.928;2023-06-22T11:41:20;11.05;;;7.13;;
19623;SDS011;9959;49.798;9.928;2023-06-22T11:43:49;11.73;;;7.28;;
19623;SDS011;9959;49.798;9.928;2023-06-22T11:46:15;14.40;;;7.07;;
19623;SDS011;9959;49.798;9.928;2023-06-22T11:48:42;15.15;;;7.70;;
19623;SDS011;9959;49.798;9.928;2023-06-22T11:51:09;13.93;;;7.30;;
19623;SDS011;9959;49.798;9.928;2023-06-22T11:53:36;10.68;;;6.53;;
19623;SDS011;9959;49.798;9.928;2023-06-22T11:56:03;12.85;;;7.00;;
19623;SDS011;9959;49.798;9.928;2023-06-22T11:58:30;14.10;;;7.60;;
19623;SDS011;9959;49.798;9.928;2023-06-22T12:00:57;13.02;;;6.65;;
19623;SDS011;9959;49.798;9.928;2023-06-22T12:03:24;15.18;;;7.40;;
19623;SDS011;9959;49.798;9.928;2023-06-22T12:05:51;12.82;;;7.55;;
19623;SDS011;9959;49.798;9.928;2023-06-22T12:08:19;13.07;;;7.15;;
19623;SDS011;9959;49.798;9.928;2023-06-22T12:10:45;16.15;;;7.55;;
19623;SDS011;9959;49.798;9.928;2023-06-22T12:13:12;11.43;;;7.38;;
19623;SDS011;9959;49.798;9.928;2023-06-22T12:15:39;13.40;;;7.38;;
19623;SDS011;9959;49.798;9.928;2023-06-22T12:18:06;11.25;;;7.18;;
19623;SDS011;9959;49.798;9.928;2023-06-22T12:20:35;14.07;;;7.35;;
19623;SDS011;9959;49.798;9.928;2023-06-22T12:23:01;13.40;;;7.38;;
19623;SDS011;9959;49.798;9.928;2023-06-22T12:25:28;14.40;;;6.88;;
19623;SDS011;9959;49.798;9.928;2023-06-22T12:27:55;13.13;;;7.55;;
19623;SDS011;9959;49.798;9.928;2023-06-22T12:30:22;11.57;;;6.90;;
19623;SDS011;9959;49.798;9.928;2023-06-22T12:32:49;11.75;;;7.32;;
19623;SDS011;9959;49.798;9.928;2023-06-22T12:35:20;12.15;;;7.25;;
19623;SDS011;9959;49.798;9.928;2023-06-22T12:37:47;12.93;;;6.82;;
19623;SDS011;9959;49.798;9.928;2023-06-22T12:40:14;10.68;;;6.85;;
19623;SDS011;9959;49.798;9.928;2023-06-22T12:42:41;13.77;;;6.90;;
19623;SDS011;9959;49.798;9.928;2023-06-22T12:45:09;13.73;;;7.10;;
19623;SDS011;9959;49.798;9.928;2023-06-22T12:47:36;15.07;;;7.03;;
19623;SDS011;9959;49.798;9.928;2023-06-22T12:50:03;8.70;;;7.05;;
19623;SDS011;9959;49.798;9.928;2023-06-22T12:52:30;13.45;;;7.55;;
19623;SDS011;9959;49.798;9.928;2023-06-22T12:55:00;13.57;;;8.00;;
19623;SDS011;9959;49.798;9.928;2023-06-22T12:57:27;12.82;;;7.47;;
19623;SDS011;9959;49.798;9.928;2023-06-22T12:59:54;13.27;;;7.22;;
19623;SDS011;9959;49.798;9.928;2023-06-22T13:02:21;14.48;;;8.45;;
19623;SDS011;9959;49.798;9.928;2023-06-22T13:04:48;15.88;;;7.65;;
19623;SDS011;9959;49.798;9.928;2023-06-22T13:07:15;13.82;;;7.82;;
19623;SDS011;9959;49.798;9.928;2023-06-22T13:09:49;13.82;;;7.65;;
19623;SDS011;9959;49.798;9.928;2023-06-22T13:12:20;14.50;;;7.78;;
19623;SDS011;9959;49.798;9.928;2023-06-22T13:14:47;16.55;;;7.30;;
19623;SDS011;9959;49.798;9.928;2023-06-22T13:17:14;13.00;;;7.15;;
19623;SDS011;9959;49.798;9.928;2023-06-22T13:19:41;14.77;;;7.40;;
19623;SDS011;9959;49.798;9.928;2023-06-22T13:22:25;13.45;;;7.63;;
19623;SDS011;9959;49.798;9.928;2023-06-22T13:24:54;15.80;;;7.50;;
19623;SDS011;9959;49.798;9.928;2023-06-22T13:27:22;12.40;;;6.88;;
19623;SDS011;9959;49.798;9.928;2023-06-22T13:29:49;13.55;;;7.18;;
19623;SDS011;9959;49.798;9.928;2023-06-22T13:32:16;12.25;;;7.38;;
19623;SDS011;9959;49.798;9.928;2023-06-22T13:34:43;14.27;;;8.02;;
19623;SDS011;9959;49.798;9.928;2023-06-22T13:37:10;13.25;;;7.55;;
19623;SDS011;9959;49.798;9.928;2023-06-22T13:39:37;17.00;;;7.10;;
19623;SDS011;9959;49.798;9.928;2023-06-22T13:42:04;13.70;;;7.13;;
19623;SDS011;9959;49.798;9.928;2023-06-22T13:44:31;17.33;;;7.20;;
19623;SDS011;9959;49.798;9.928;2023-06-22T13:46:58;14.80;;;7.93;;
19623;SDS011;9959;49.798;9.928;2023-06-22T13:49:26;14.25;;;7.40;;
19623;SDS011;9959;49.798;9.928;2023-06-22T13:51:53;16.40;;;7.68;;
19623;SDS011;9959;49.798;9.928;2023-06-22T13:54:20;15.75;;;7.30;;
19623;SDS011;9959;49.798;9.928;2023-06-22T13:56:55;12.65;;;7.18;;
19623;SDS011;9959;49.798;9.928;2023-06-22T13:59:22;14.80;;;7.60;;
19623;SDS011;9959;49.798;9.928;2023-06-22T14:01:49;15.00;;;7.38;;
19623;SDS011;9959;49.798;9.928;2023-06-22T14:04:17;13.18;;;7.30;;
19623;SDS011;9959;49.798;9.928;2023-06-22T14:06:44;12.18;;;6.78;;
19623;SDS011;9959;49.798;9.928;2023-06-22T14:09:10;13.68;;;7.13;;
19623;SDS011;9959;49.798;9.928;2023-06-22T14:11:37;11.43;;;7.10;;
19623;SDS011;9959;49.798;9.928;2023-06-22T14:14:04;13.27;;;7.07;;
19623;SDS011;9959;49.798;9.928;2023-06-22T14:16:31;14.13;;;7.50;;
19623;SDS011;9959;49.798;9.928;2023-06-22T14:18:58;14.05;;;7.25;;
19623;SDS011;9959;49.798;9.928;2023-06-22T14:21:25;12.65;;;8.18;;
19623;SDS011;9959;49.798;9.928;2023-06-22T14:23:53;10.93;;;6.90;;
19623;SDS011;9959;49.798;9.928;2023-06-22T14:26:20;13.93;;;7.55;;
19623;SDS011;9959;49.798;9.928;2023-06-22T14:28:47;16.40;;;7.63;;
19623;SDS011;9959;49.798;9.928;2023-06-22T14:31:19;13.65;;;7.45;;
19623;SDS011;9959;49.798;9.928;2023-06-22T14:33:47;13.35;;;7.00;;
19623;SDS011;9959;49.798;9.928;2023-06-22T14:36:15;12.38;;;7.10;;
19623;SDS011;9959;49.798;9.928;2023-06-22T14:38:44;13.55;;;7.57;;
19623;SDS011;9959;49.798;9.928;2023-06-22T14:41:13;12.27;;;6.47;;
19623;SDS011;9959;49.798;9.928;2023-06-22T14:43:45;22.42;;;7.18;;
19623;SDS011;9959;49.798;9.928;2023-06-22T14:46:19;12.45;;;7.80;;
19623;SDS011;9959;49.798;9.928;2023-06-22T14:48:46;13.48;;;7.20;;